createdAt,value
2018-12-15T00:02:05.717Z,24.50
2018-12-15T00:04:34.017Z,25.27
2018-12-15T00:07:02.285Z,25.30
2018-12-15T00:09:30.480Z,26.07
2018-12-15T00:11:58.738Z,24.00
2018-12-15T00:14:26.920Z,23.50
2018-12-15T00:16:55.153Z,23.20
2018-12-15T00:19:23.360Z,24.50
2018-12-15T00:21:51.636Z,23.70
2018-12-15T00:24:19.828Z,24.50
2018-12-15T00:26:48.188Z,24.30
2018-12-15T00:29:16.405Z,25.13
2018-12-15T00:31:44.712Z,26.40
2018-12-15T00:34:12.949Z,25.07
2018-12-15T00:36:41.206Z,25.13
2018-12-15T00:39:09.444Z,23.47
2018-12-15T00:41:37.642Z,24.60
2018-12-15T00:44:05.888Z,25.53
2018-12-15T00:46:34.088Z,25.20
2018-12-15T00:49:02.311Z,22.90
2018-12-15T00:51:30.568Z,25.00
2018-12-15T00:53:58.819Z,26.00
2018-12-15T00:56:27.023Z,24.50
2018-12-15T00:58:55.276Z,24.10
2018-12-15T01:01:23.500Z,25.50
2018-12-15T01:03:51.712Z,23.80
2018-12-15T01:06:19.944Z,23.37
2018-12-15T01:08:48.260Z,26.13
2018-12-15T01:11:16.517Z,23.40
2018-12-15T01:13:44.718Z,24.10
2018-12-15T01:16:12.981Z,24.73
2018-12-15T01:18:41.204Z,24.47
2018-12-15T01:21:09.476Z,24.37
2018-12-15T01:23:37.672Z,24.03
2018-12-15T01:26:05.873Z,25.67
2018-12-15T01:28:34.113Z,23.70
2018-12-15T01:31:02.310Z,23.90
2018-12-15T01:33:30.552Z,22.33
2018-12-15T01:35:58.747Z,24.93
2018-12-15T01:38:26.981Z,23.63
2018-12-15T01:40:55.181Z,25.53
2018-12-15T01:43:23.614Z,26.40
2018-12-15T01:45:51.836Z,26.73
2018-12-15T01:48:20.084Z,27.97
2018-12-15T01:50:48.421Z,25.57
2018-12-15T01:53:16.666Z,26.03
2018-12-15T01:55:44.856Z,26.10
2018-12-15T01:58:13.073Z,27.57
2018-12-15T02:00:41.425Z,25.30
2018-12-15T02:03:09.625Z,25.67
2018-12-15T02:05:38.059Z,25.67
2018-12-15T02:08:06.424Z,26.23
2018-12-15T02:10:34.684Z,24.43
2018-12-15T02:13:02.884Z,25.77
2018-12-15T02:15:31.076Z,26.97
2018-12-15T02:17:59.371Z,25.83
2018-12-15T02:20:27.676Z,26.00
2018-12-15T02:22:55.932Z,25.93
2018-12-15T02:25:24.124Z,26.60
2018-12-15T02:27:52.366Z,24.73
2018-12-15T02:30:20.552Z,26.27
2018-12-15T02:32:48.821Z,26.30
2018-12-15T02:35:17.192Z,25.70
2018-12-15T02:37:45.429Z,27.50
2018-12-15T02:40:13.864Z,26.10
2018-12-15T02:42:42.122Z,26.90
2018-12-15T02:45:10.368Z,27.30
2018-12-15T02:47:41.672Z,26.97
2018-12-15T02:50:08.796Z,27.50
2018-12-15T02:52:37.057Z,26.40
2018-12-15T02:55:05.622Z,26.73
2018-12-15T02:57:33.867Z,27.23
2018-12-15T03:00:02.145Z,26.60
2018-12-15T03:02:30.372Z,29.43
2018-12-15T03:04:58.565Z,29.37
2018-12-15T03:07:26.876Z,27.57
2018-12-15T03:09:55.208Z,28.47
2018-12-15T03:12:23.408Z,27.90
2018-12-15T03:14:51.609Z,27.20
2018-12-15T03:17:19.869Z,26.53
2018-12-15T03:19:48.064Z,26.00
2018-12-15T03:22:16.366Z,26.17
2018-12-15T03:24:45.039Z,26.13
2018-12-15T03:27:13.282Z,28.20
2018-12-15T03:29:41.477Z,30.73
2018-12-15T03:32:09.737Z,25.73
2018-12-15T03:34:38.010Z,28.63
2018-12-15T03:37:06.204Z,28.27
2018-12-15T03:39:34.464Z,26.20
2018-12-15T03:42:02.644Z,28.00
2018-12-15T03:44:30.852Z,27.70
2018-12-15T03:46:59.104Z,26.23
2018-12-15T03:49:27.313Z,24.33
2018-12-15T03:51:55.548Z,24.10
2018-12-15T03:54:23.757Z,26.87
2018-12-15T03:56:51.953Z,25.03
2018-12-15T03:59:20.672Z,25.50
2018-12-15T04:01:48.993Z,25.53
2018-12-15T04:04:17.228Z,25.97
2018-12-15T04:06:45.472Z,24.70
2018-12-15T04:09:13.661Z,24.43
2018-12-15T04:11:41.900Z,25.00
2018-12-15T04:14:10.131Z,24.77
2018-12-15T04:16:38.357Z,24.40
2018-12-15T04:19:06.626Z,25.00
2018-12-15T04:21:34.840Z,23.37
2018-12-15T04:24:03.060Z,23.00
2018-12-15T04:26:31.294Z,24.93
2018-12-15T04:28:59.592Z,22.93
2018-12-15T04:31:27.843Z,22.87
2018-12-15T04:33:56.191Z,25.13
2018-12-15T04:36:24.377Z,25.07
2018-12-15T04:38:52.608Z,23.60
2018-12-15T04:41:20.810Z,23.47
2018-12-15T04:43:49.376Z,22.03
2018-12-15T04:46:17.596Z,25.23
2018-12-15T04:48:45.788Z,22.70
2018-12-15T04:51:14.037Z,24.37
2018-12-15T04:53:42.321Z,24.10
2018-12-15T04:56:10.559Z,23.90
2018-12-15T04:58:38.833Z,23.67
2018-12-15T05:01:07.064Z,23.33
2018-12-15T05:03:35.372Z,23.63
2018-12-15T05:06:03.604Z,23.67
2018-12-15T05:08:31.817Z,23.47
2018-12-15T05:11:00.131Z,23.47
2018-12-15T05:13:28.317Z,23.70
2018-12-15T05:15:56.567Z,23.63
2018-12-15T05:18:24.776Z,23.07
2018-12-15T05:20:53.048Z,23.60
2018-12-15T05:23:21.292Z,24.63
2018-12-15T05:25:49.520Z,23.17
2018-12-15T05:28:17.772Z,21.90
2018-12-15T05:30:46.101Z,22.40
2018-12-15T05:33:14.307Z,23.23
2018-12-15T05:35:42.546Z,22.90
2018-12-15T05:38:10.759Z,22.10
2018-12-15T05:40:38.989Z,22.37
2018-12-15T05:43:07.209Z,22.80
2018-12-15T05:45:35.412Z,24.13
2018-12-15T05:48:03.698Z,21.83
2018-12-15T05:50:31.892Z,22.77
2018-12-15T05:53:00.152Z,21.43
2018-12-15T05:55:28.427Z,23.33
2018-12-15T05:57:56.656Z,24.03
2018-12-15T06:00:25.083Z,24.17
2018-12-15T06:02:53.308Z,23.93
2018-12-15T06:05:21.751Z,23.00
2018-12-15T06:07:50.107Z,23.20
2018-12-15T06:10:18.318Z,21.67
2018-12-15T06:12:46.568Z,22.97
2018-12-15T06:15:14.802Z,22.00
2018-12-15T06:17:43.013Z,25.20
2018-12-15T06:20:11.245Z,21.67
2018-12-15T06:22:39.488Z,23.33
2018-12-15T06:25:07.966Z,22.73
2018-12-15T06:27:36.269Z,21.70
2018-12-15T06:30:05.953Z,22.23
2018-12-15T06:32:34.176Z,23.50
2018-12-15T06:35:02.585Z,22.80
2018-12-15T06:37:30.820Z,22.67
2018-12-15T06:39:59.135Z,25.27
2018-12-15T06:42:27.424Z,21.07
2018-12-15T06:44:55.675Z,23.17
2018-12-15T06:47:24.021Z,22.70
2018-12-15T06:49:52.308Z,22.17
2018-12-15T06:52:20.573Z,23.47
2018-12-15T06:54:48.896Z,23.00
2018-12-15T06:57:17.179Z,23.07
2018-12-15T06:59:45.464Z,27.20
2018-12-15T07:02:13.692Z,24.10
2018-12-15T07:04:41.968Z,22.93
2018-12-15T07:07:10.280Z,23.87
2018-12-15T07:09:38.635Z,22.77
2018-12-15T07:12:07.016Z,24.07
2018-12-15T07:14:35.281Z,22.97
2018-12-15T07:17:03.714Z,23.03
2018-12-15T07:19:31.936Z,23.97
2018-12-15T07:22:00.273Z,22.70
2018-12-15T07:24:28.608Z,24.70
2018-12-15T07:26:56.897Z,24.50
2018-12-15T07:29:25.104Z,23.80
2018-12-15T07:31:53.361Z,23.57
2018-12-15T07:34:21.593Z,25.40
2018-12-15T07:36:49.905Z,23.73
2018-12-15T07:39:18.145Z,23.07
2018-12-15T07:41:46.384Z,21.97
2018-12-15T07:44:14.681Z,24.63
2018-12-15T07:46:42.893Z,21.60
2018-12-15T07:49:11.120Z,23.20
2018-12-15T07:51:39.371Z,22.77
2018-12-15T07:54:07.696Z,25.77
2018-12-15T07:56:35.977Z,23.10
2018-12-15T07:59:04.406Z,23.20
2018-12-15T08:01:32.671Z,23.70
2018-12-15T08:04:00.916Z,22.47
2018-12-15T08:06:29.316Z,23.10
2018-12-15T08:08:57.571Z,24.80
2018-12-15T08:11:31.103Z,22.83
2018-12-15T08:14:03.580Z,23.27
2018-12-15T08:16:32.068Z,24.63
2018-12-15T08:19:00.915Z,23.60
2018-12-15T08:21:29.203Z,21.93
2018-12-15T08:23:57.512Z,22.33
2018-12-15T08:26:25.862Z,21.53
2018-12-15T08:28:54.132Z,23.40
2018-12-15T08:31:22.465Z,23.10
2018-12-15T08:33:50.763Z,22.50
2018-12-15T08:36:19.078Z,23.07
2018-12-15T08:38:47.320Z,21.07
2018-12-15T08:41:15.649Z,20.30
2018-12-15T08:43:43.913Z,19.87
2018-12-15T08:46:17.117Z,20.93
2018-12-15T08:48:45.452Z,20.40
2018-12-15T08:51:14.070Z,21.23
2018-12-15T08:53:42.660Z,22.23
2018-12-15T08:56:10.925Z,21.33
2018-12-15T08:58:39.263Z,21.87
2018-12-15T09:01:07.656Z,21.37
2018-12-15T09:03:36.144Z,21.37
2018-12-15T09:06:04.530Z,21.10
2018-12-15T09:08:32.836Z,20.10
2018-12-15T09:11:01.090Z,21.10
2018-12-15T09:13:29.332Z,21.80
2018-12-15T09:15:57.632Z,21.23
2018-12-15T09:18:26.011Z,21.87
2018-12-15T09:20:54.310Z,21.90
2018-12-15T09:23:22.579Z,23.03
2018-12-15T09:25:50.932Z,22.03
2018-12-15T09:28:19.244Z,21.27
2018-12-15T09:30:47.476Z,21.60
2018-12-15T09:33:15.752Z,21.70
2018-12-15T09:35:44.073Z,21.47
2018-12-15T09:38:12.264Z,21.40
2018-12-15T09:40:40.477Z,20.80
2018-12-15T09:43:08.702Z,20.43
2018-12-15T09:45:37.116Z,20.13
2018-12-15T09:48:05.307Z,21.37
2018-12-15T09:50:33.932Z,20.97
2018-12-15T09:53:02.167Z,20.27
2018-12-15T09:55:30.432Z,21.20
2018-12-15T09:57:58.769Z,23.20
2018-12-15T10:00:27.032Z,22.37
2018-12-15T10:02:55.315Z,23.97
2018-12-15T10:05:23.900Z,23.07
2018-12-15T10:07:52.092Z,25.67
2018-12-15T10:10:20.345Z,28.83
2018-12-15T10:12:48.616Z,24.20
2018-12-15T10:15:17.029Z,21.90
2018-12-15T10:17:45.425Z,22.40
2018-12-15T10:20:13.694Z,19.87
2018-12-15T10:22:41.949Z,19.93
2018-12-15T10:25:10.183Z,20.43
2018-12-15T10:27:38.416Z,19.67
2018-12-15T10:30:12.492Z,20.23
2018-12-15T10:32:45.900Z,19.37
2018-12-15T10:35:14.097Z,19.70
2018-12-15T10:37:42.400Z,21.20
2018-12-15T10:40:10.844Z,21.40
2018-12-15T10:42:39.185Z,19.17
2018-12-15T10:45:07.644Z,21.50
2018-12-15T10:47:36.088Z,21.77
2018-12-15T10:50:04.982Z,23.40
2018-12-15T10:52:33.296Z,23.63
2018-12-15T10:55:01.602Z,23.53
2018-12-15T10:57:29.948Z,25.10
2018-12-15T10:59:58.288Z,25.47
2018-12-15T11:02:26.504Z,25.20
2018-12-15T11:04:54.756Z,25.70
2018-12-15T11:07:23.053Z,25.33
2018-12-15T11:09:51.324Z,27.33
2018-12-15T11:12:19.647Z,27.20
2018-12-15T11:14:47.875Z,26.87
2018-12-15T11:17:16.213Z,27.07
2018-12-15T11:19:44.524Z,27.10
2018-12-15T11:22:12.818Z,28.73
2018-12-15T11:24:41.080Z,28.73
2018-12-15T11:27:09.396Z,27.23
2018-12-15T11:29:37.682Z,29.23
2018-12-15T11:32:06.064Z,27.13
2018-12-15T11:34:34.296Z,27.77
2018-12-15T11:37:02.613Z,27.67
2018-12-15T11:39:30.888Z,28.07
2018-12-15T11:41:59.163Z,26.77
2018-12-15T11:44:27.390Z,27.13
2018-12-15T11:46:55.672Z,27.90
2018-12-15T11:49:24.004Z,29.30
2018-12-15T11:51:52.232Z,28.60
2018-12-15T11:54:20.484Z,27.13
2018-12-15T11:56:49.865Z,28.87
2018-12-15T11:59:18.052Z,27.23
2018-12-15T12:01:46.388Z,25.80
2018-12-15T12:04:14.676Z,26.27
2018-12-15T12:06:42.880Z,27.70
2018-12-15T12:09:11.137Z,27.87
2018-12-15T12:11:39.355Z,28.17
2018-12-15T12:14:07.663Z,27.10
2018-12-15T12:16:36.000Z,25.27
2018-12-15T12:19:04.442Z,23.90
2018-12-15T12:21:32.664Z,26.07
2018-12-15T12:24:00.879Z,26.40
2018-12-15T12:26:29.128Z,25.23
2018-12-15T12:28:57.453Z,24.73
2018-12-15T12:31:25.680Z,26.40
2018-12-15T12:33:53.969Z,40.60
2018-12-15T12:36:22.232Z,32.23
2018-12-15T12:38:50.499Z,26.00
2018-12-15T12:41:18.857Z,21.37
2018-12-15T12:43:47.061Z,24.60
2018-12-15T12:46:15.349Z,24.60
2018-12-15T12:48:43.553Z,35.87
2018-12-15T12:51:11.830Z,23.93
2018-12-15T12:53:40.085Z,24.77
2018-12-15T12:56:08.348Z,23.57
2018-12-15T12:58:36.670Z,22.30
2018-12-15T13:01:04.913Z,21.50
2018-12-15T13:03:33.105Z,23.97
2018-12-15T13:06:01.340Z,23.67
2018-12-15T13:08:29.664Z,22.10
2018-12-15T13:10:57.898Z,23.77
2018-12-15T13:13:26.220Z,22.63
2018-12-15T13:15:54.461Z,22.23
2018-12-15T13:18:22.755Z,23.57
2018-12-15T13:20:51.036Z,22.13
2018-12-15T13:23:19.325Z,21.87
2018-12-15T13:25:47.600Z,22.40
2018-12-15T13:28:15.780Z,23.77
2018-12-15T13:30:44.048Z,21.47
2018-12-15T13:33:23.712Z,19.60
2018-12-15T13:35:51.933Z,19.27
2018-12-15T13:38:20.212Z,20.53
2018-12-15T13:40:48.517Z,18.60
2018-12-15T13:43:16.744Z,19.00
2018-12-15T13:45:45.068Z,15.90
2018-12-15T13:48:13.431Z,14.40
2018-12-15T13:50:41.847Z,15.60
2018-12-15T13:53:10.044Z,16.87
2018-12-15T13:55:38.244Z,16.10
2018-12-15T13:58:06.601Z,15.30
2018-12-15T14:00:34.887Z,17.60
2018-12-15T14:03:03.292Z,18.53
2018-12-15T14:05:31.584Z,17.40
2018-12-15T14:07:59.873Z,18.20
2018-12-15T14:10:28.101Z,19.43
2018-12-15T14:12:56.292Z,20.90
2018-12-15T14:15:24.610Z,20.53
2018-12-15T14:17:52.919Z,19.77
2018-12-15T14:20:21.157Z,19.40
2018-12-15T14:22:49.428Z,18.70
2018-12-15T14:25:17.649Z,20.37
2018-12-15T14:27:45.828Z,20.50
2018-12-15T14:30:14.128Z,21.70
2018-12-15T14:32:42.386Z,22.30
2018-12-15T14:35:10.809Z,21.07
2018-12-15T14:37:39.136Z,22.33
2018-12-15T14:40:07.572Z,21.03
2018-12-15T14:42:35.789Z,23.13
2018-12-15T14:45:04.329Z,25.83
2018-12-15T14:47:32.523Z,25.20
2018-12-15T14:50:00.874Z,23.93
2018-12-15T14:52:29.226Z,27.00
2018-12-15T14:54:57.453Z,25.37
2018-12-15T14:57:25.720Z,27.07
2018-12-15T14:59:54.336Z,25.77
2018-12-15T15:02:22.616Z,27.60
2018-12-15T15:04:50.937Z,26.90
2018-12-15T15:07:19.149Z,25.47
2018-12-15T15:09:47.471Z,26.60
2018-12-15T15:12:15.780Z,25.07
2018-12-15T15:14:43.973Z,25.80
2018-12-15T15:17:12.262Z,26.67
2018-12-15T15:19:40.500Z,25.00
2018-12-15T15:22:08.840Z,26.33
2018-12-15T15:24:37.050Z,27.10
2018-12-15T15:27:05.321Z,24.87
2018-12-15T15:29:33.596Z,26.83
2018-12-15T15:32:01.852Z,27.50
2018-12-15T15:34:30.044Z,27.03
2018-12-15T15:36:58.344Z,26.20
2018-12-15T15:39:26.541Z,28.53
2018-12-15T15:41:54.773Z,28.77
2018-12-15T15:44:23.064Z,29.93
2018-12-15T15:46:51.296Z,29.33
2018-12-15T15:49:19.538Z,29.03
2018-12-15T15:51:47.771Z,28.43
2018-12-15T15:54:16.057Z,26.53
2018-12-15T15:56:44.268Z,28.60
2018-12-15T15:59:12.489Z,27.03
2018-12-15T16:01:40.740Z,26.53
2018-12-15T16:04:09.266Z,25.60
2018-12-15T16:06:37.441Z,24.27
2018-12-15T16:09:09.234Z,21.97
2018-12-15T16:11:38.060Z,21.03
2018-12-15T16:14:06.352Z,22.20
2018-12-15T16:16:35.680Z,20.77
2018-12-15T16:19:04.280Z,22.10
2018-12-15T16:21:32.628Z,18.60
2018-12-15T16:24:01.003Z,19.00
2018-12-15T16:26:29.401Z,21.63
2018-12-15T16:28:57.627Z,19.77
2018-12-15T16:31:25.942Z,20.10
2018-12-15T16:33:54.243Z,19.83
2018-12-15T16:36:22.499Z,20.10
2018-12-15T16:38:50.780Z,20.07
2018-12-15T16:41:18.999Z,18.80
2018-12-15T16:43:47.304Z,18.60
2018-12-15T16:46:15.504Z,18.83
2018-12-15T16:48:43.766Z,19.93
2018-12-15T16:51:12.106Z,19.50
2018-12-15T16:53:40.384Z,19.73
2018-12-15T16:56:08.637Z,20.50
2018-12-15T16:58:36.901Z,20.20
2018-12-15T17:01:05.222Z,21.70
2018-12-15T17:03:33.644Z,21.10
2018-12-15T17:06:01.944Z,19.90
2018-12-15T17:08:30.193Z,21.07
2018-12-15T17:10:58.536Z,22.80
2018-12-15T17:13:26.762Z,21.40
2018-12-15T17:15:55.052Z,21.60
2018-12-15T17:18:23.308Z,20.63
2018-12-15T17:20:56.628Z,22.40
2018-12-15T17:23:21.911Z,22.33
2018-12-15T17:25:50.104Z,23.00
2018-12-15T17:28:18.324Z,22.27
2018-12-15T17:30:46.552Z,26.10
2018-12-15T17:33:14.869Z,24.77
2018-12-15T17:35:43.212Z,21.97
2018-12-15T17:38:11.416Z,21.33
2018-12-15T17:40:39.667Z,22.23
2018-12-15T17:43:07.859Z,24.73
2018-12-15T17:45:36.129Z,22.47
2018-12-15T17:48:04.548Z,26.80
2018-12-15T17:50:32.808Z,23.50
2018-12-15T17:53:01.084Z,23.70
2018-12-15T17:55:29.274Z,21.90
2018-12-15T17:57:57.511Z,25.47
2018-12-15T18:00:25.976Z,21.70
2018-12-15T18:02:54.313Z,21.87
2018-12-15T18:05:22.577Z,22.47
2018-12-15T18:07:50.778Z,22.73
2018-12-15T18:10:19.079Z,23.13
2018-12-15T18:12:47.355Z,22.90
2018-12-15T18:15:15.560Z,21.87
2018-12-15T18:17:43.753Z,23.40
2018-12-15T18:20:12.216Z,24.67
2018-12-15T18:22:40.451Z,23.30
2018-12-15T18:25:08.748Z,23.97
2018-12-15T18:27:37.013Z,25.90
2018-12-15T18:30:07.343Z,26.00
2018-12-15T18:32:35.580Z,25.23
2018-12-15T18:35:04.125Z,25.80
2018-12-15T18:37:32.349Z,23.03
2018-12-15T18:40:00.605Z,23.53
2018-12-15T18:42:29.892Z,24.73
2018-12-15T18:44:58.094Z,24.13
2018-12-15T18:47:26.325Z,23.30
2018-12-15T18:49:54.584Z,24.10
2018-12-15T18:52:22.777Z,26.27
2018-12-15T18:54:50.968Z,25.67
2018-12-15T18:57:19.244Z,23.67
2018-12-15T18:59:47.437Z,26.67
2018-12-15T19:02:15.701Z,23.90
2018-12-15T19:04:43.995Z,25.93
2018-12-15T19:07:12.194Z,24.33
2018-12-15T19:09:40.409Z,23.77
2018-12-15T19:12:08.636Z,23.90
2018-12-15T19:14:36.840Z,23.17
2018-12-15T19:17:05.308Z,22.17
2018-12-15T19:19:33.540Z,22.50
2018-12-15T19:22:01.767Z,24.30
2018-12-15T19:24:30.033Z,24.67
2018-12-15T19:26:58.429Z,22.60
2018-12-15T19:29:26.641Z,24.60
2018-12-15T19:31:54.871Z,23.30
2018-12-15T19:34:23.073Z,27.27
2018-12-15T19:36:51.288Z,24.17
2018-12-15T19:39:19.507Z,22.80
2018-12-15T19:41:47.719Z,22.23
2018-12-15T19:44:15.939Z,29.50
2018-12-15T19:46:44.197Z,22.97
2018-12-15T19:49:12.436Z,24.60
2018-12-15T19:51:40.630Z,23.53
2018-12-15T19:54:08.984Z,21.40
2018-12-15T19:56:37.177Z,21.07
2018-12-15T19:59:05.484Z,22.83
2018-12-15T20:01:33.677Z,22.17
2018-12-15T20:04:02.009Z,21.37
2018-12-15T20:06:30.436Z,21.47
2018-12-15T20:08:58.636Z,21.13
2018-12-15T20:11:26.900Z,22.03
2018-12-15T20:13:55.116Z,22.67
2018-12-15T20:16:23.321Z,21.80
2018-12-15T20:18:51.552Z,21.73
2018-12-15T20:21:19.752Z,19.77
2018-12-15T20:23:48.004Z,20.07
2018-12-15T20:26:16.209Z,20.73
2018-12-15T20:28:44.412Z,19.73
2018-12-15T20:31:12.647Z,20.73
2018-12-15T20:33:40.896Z,19.07
2018-12-15T20:36:09.265Z,19.73
2018-12-15T20:38:37.521Z,20.90
2018-12-15T20:41:05.756Z,17.80
2018-12-15T20:43:34.864Z,19.70
2018-12-15T20:46:03.126Z,19.40
2018-12-15T20:48:31.437Z,18.60
2018-12-15T20:50:59.641Z,19.20
2018-12-15T20:53:27.892Z,19.07
2018-12-15T20:55:56.517Z,20.97
2018-12-15T20:58:24.728Z,21.97
2018-12-15T21:00:53.087Z,23.20
2018-12-15T21:03:21.286Z,19.47
2018-12-15T21:05:49.495Z,20.23
2018-12-15T21:08:17.884Z,20.30
2018-12-15T21:10:46.129Z,23.20
2018-12-15T21:13:14.384Z,21.40
2018-12-15T21:15:45.776Z,22.03
2018-12-15T21:18:13.976Z,22.27
2018-12-15T21:20:42.360Z,24.93
2018-12-15T21:23:10.557Z,23.80
2018-12-15T21:25:38.764Z,22.70
2018-12-15T21:28:07.029Z,23.67
2018-12-15T21:30:35.336Z,22.37
2018-12-15T21:33:03.633Z,23.50
2018-12-15T21:35:31.820Z,25.40
2018-12-15T21:38:00.137Z,24.27
2018-12-15T21:40:28.428Z,26.67
2018-12-15T21:42:56.624Z,25.40
2018-12-15T21:45:24.856Z,23.67
2018-12-15T21:47:57.654Z,24.97
2018-12-15T21:50:23.372Z,25.87
2018-12-15T21:52:51.600Z,24.03
2018-12-15T21:55:19.980Z,25.10
2018-12-15T21:57:48.193Z,23.10
2018-12-15T22:00:16.668Z,25.30
2018-12-15T22:02:44.989Z,24.67
2018-12-15T22:05:13.230Z,24.60
2018-12-15T22:07:41.485Z,25.70
2018-12-15T22:10:09.955Z,24.17
2018-12-15T22:12:38.164Z,24.13
2018-12-15T22:15:06.972Z,24.43
2018-12-15T22:17:35.172Z,24.57
2018-12-15T22:20:04.223Z,23.97
2018-12-15T22:22:32.488Z,24.30
2018-12-15T22:25:00.700Z,23.97
2018-12-15T22:27:29.021Z,24.70
2018-12-15T22:29:57.316Z,23.83
2018-12-15T22:32:25.550Z,23.50
2018-12-15T22:34:53.806Z,24.50
2018-12-15T22:37:22.088Z,23.97
2018-12-15T22:39:50.296Z,23.87
2018-12-15T22:42:18.549Z,23.27
2018-12-15T22:44:46.768Z,24.73
2018-12-15T22:47:15.117Z,24.10
2018-12-15T22:49:43.453Z,25.47
2018-12-15T22:52:11.724Z,24.50
2018-12-15T22:54:39.932Z,25.70
2018-12-15T22:57:08.157Z,25.37
2018-12-15T22:59:36.412Z,24.73
2018-12-15T23:02:05.001Z,25.97
2018-12-15T23:04:33.243Z,26.93
2018-12-15T23:07:01.495Z,25.10
2018-12-15T23:09:29.733Z,24.53
2018-12-15T23:11:58.017Z,25.50
2018-12-15T23:14:26.265Z,25.20
2018-12-15T23:16:54.665Z,26.17
2018-12-15T23:19:22.886Z,26.33
2018-12-15T23:21:51.174Z,28.03
2018-12-15T23:24:19.645Z,27.10
2018-12-15T23:26:48.158Z,25.30
2018-12-15T23:29:16.440Z,26.57
2018-12-15T23:31:44.634Z,27.10
2018-12-15T23:34:12.841Z,25.30
2018-12-15T23:36:41.181Z,26.33
2018-12-15T23:39:09.402Z,26.50
2018-12-15T23:41:37.675Z,26.00
2018-12-15T23:44:05.989Z,27.03
2018-12-15T23:46:34.236Z,25.80
2018-12-15T23:49:02.464Z,24.10
2018-12-15T23:51:30.676Z,26.20
2018-12-15T23:53:58.992Z,26.10
2018-12-15T23:56:27.231Z,26.60
2018-12-15T23:58:55.499Z,25.23
